sensor_id;sensor_type;location;lat;lon;timestamp;temperature;humidity
42141;DHT22;27809;51.864;5.646;2022-12-18T00:01:58;-5.00;99.90
42141;DHT22;27809;51.864;5.646;2022-12-18T00:04:26;-4.90;99.90
42141;DHT22;27809;51.864;5.646;2022-12-18T00:06:52;-4.80;99.90
42141;DHT22;27809;51.864;5.646;2022-12-18T00:09:18;-4.90;99.90
42141;DHT22;27809;51.864;5.646;2022-12-18T00:11:44;-4.80;99.90
42141;DHT22;27809;51.864;5.646;2022-12-18T00:14:11;-5.10;99.90
42141;DHT22;27809;51.864;5.646;2022-12-18T00:16:37;-5.20;99.90
42141;DHT22;27809;51.864;5.646;2022-12-18T00:19:04;-5.30;99.90
42141;DHT22;27809;51.864;5.646;2022-12-18T00:21:31;-5.20;99.90
42141;DHT22;27809;51.864;5.646;2022-12-18T00:23:59;-5.20;99.90
42141;DHT22;27809;51.864;5.646;2022-12-18T00:26:30;-5.30;99.90
42141;DHT22;27809;51.864;5.646;2022-12-18T00:29:04;-5.40;99.90
42141;DHT22;27809;51.864;5.646;2022-12-18T00:31:31;-5.50;99.90
42141;DHT22;27809;51.864;5.646;2022-12-18T00:33:57;-5.40;99.90
42141;DHT22;27809;51.864;5.646;2022-12-18T00:36:28;-5.20;99.90
42141;DHT22;27809;51.864;5.646;2022-12-18T00:38:55;-5.30;99.90
42141;DHT22;27809;51.864;5.646;2022-12-18T00:41:21;-5.40;99.90
42141;DHT22;27809;51.864;5.646;2022-12-18T00:44:07;-5.40;99.90
42141;DHT22;27809;51.864;5.646;2022-12-18T00:46:33;-5.30;99.90
42141;DHT22;27809;51.864;5.646;2022-12-18T00:48:59;-5.40;99.90
42141;DHT22;27809;51.864;5.646;2022-12-18T00:51:25;-5.30;99.90
42141;DHT22;27809;51.864;5.646;2022-12-18T00:53:50;-5.50;99.90
42141;DHT22;27809;51.864;5.646;2022-12-18T00:56:16;-5.60;99.90
42141;DHT22;27809;51.864;5.646;2022-12-18T00:58:41;-5.60;99.90
42141;DHT22;27809;51.864;5.646;2022-12-18T01:01:07;-5.50;99.90
42141;DHT22;27809;51.864;5.646;2022-12-18T01:03:33;-5.40;99.90
42141;DHT22;27809;51.864;5.646;2022-12-18T01:05:59;-5.10;99.90
42141;DHT22;27809;51.864;5.646;2022-12-18T01:08:24;-5.10;99.90
42141;DHT22;27809;51.864;5.646;2022-12-18T01:10:50;-5.30;99.90
42141;DHT22;27809;51.864;5.646;2022-12-18T01:13:15;-5.40;99.90
42141;DHT22;27809;51.864;5.646;2022-12-18T01:15:48;-5.30;99.90
42141;DHT22;27809;51.864;5.646;2022-12-18T01:18:14;-5.50;99.90
42141;DHT22;27809;51.864;5.646;2022-12-18T01:20:39;-5.50;99.90
42141;DHT22;27809;51.864;5.646;2022-12-18T01:23:05;-5.40;99.90
42141;DHT22;27809;51.864;5.646;2022-12-18T01:25:30;-5.30;99.90
42141;DHT22;27809;51.864;5.646;2022-12-18T01:27:56;-5.00;99.90
42141;DHT22;27809;51.864;5.646;2022-12-18T01:30:22;-5.10;99.90
42141;DHT22;27809;51.864;5.646;2022-12-18T01:32:47;-4.90;99.90
42141;DHT22;27809;51.864;5.646;2022-12-18T01:35:13;-5.10;99.90
42141;DHT22;27809;51.864;5.646;2022-12-18T01:37:39;-5.40;99.90
42141;DHT22;27809;51.864;5.646;2022-12-18T01:40:05;-5.30;99.90
42141;DHT22;27809;51.864;5.646;2022-12-18T01:42:30;-5.30;99.90
42141;DHT22;27809;51.864;5.646;2022-12-18T01:45:02;-5.40;99.90
42141;DHT22;27809;51.864;5.646;2022-12-18T01:47:46;-5.20;99.90
42141;DHT22;27809;51.864;5.646;2022-12-18T01:50:22;-5.30;99.90
42141;DHT22;27809;51.864;5.646;2022-12-18T01:52:52;-5.30;99.90
42141;DHT22;27809;51.864;5.646;2022-12-18T01:55:20;-5.40;99.90
42141;DHT22;27809;51.864;5.646;2022-12-18T01:57:48;-5.40;99.90
42141;DHT22;27809;51.864;5.646;2022-12-18T02:00:18;-5.50;99.90
42141;DHT22;27809;51.864;5.646;2022-12-18T02:02:45;-5.50;99.90
42141;DHT22;27809;51.864;5.646;2022-12-18T02:05:13;-5.60;99.90
42141;DHT22;27809;51.864;5.646;2022-12-18T02:07:55;-5.50;99.90
42141;DHT22;27809;51.864;5.646;2022-12-18T02:10:25;-5.40;99.90
42141;DHT22;27809;51.864;5.646;2022-12-18T02:12:57;-5.30;99.90
42141;DHT22;27809;51.864;5.646;2022-12-18T02:18:42;-5.10;99.90
42141;DHT22;27809;51.864;5.646;2022-12-18T02:23:56;-5.30;99.90
42141;DHT22;27809;51.864;5.646;2022-12-18T02:26:38;-5.40;99.90
42141;DHT22;27809;51.864;5.646;2022-12-18T02:29:09;-5.30;99.90
42141;DHT22;27809;51.864;5.646;2022-12-18T02:31:40;-5.50;99.90
42141;DHT22;27809;51.864;5.646;2022-12-18T02:34:08;-5.30;99.90
42141;DHT22;27809;51.864;5.646;2022-12-18T02:36:36;-5.40;99.90
42141;DHT22;27809;51.864;5.646;2022-12-18T02:39:04;-5.40;99.90
42141;DHT22;27809;51.864;5.646;2022-12-18T02:41:30;-5.50;99.90
42141;DHT22;27809;51.864;5.646;2022-12-18T02:43:59;-5.30;99.90
42141;DHT22;27809;51.864;5.646;2022-12-18T02:46:32;-5.30;99.90
42141;DHT22;27809;51.864;5.646;2022-12-18T02:49:26;-5.60;99.90
42141;DHT22;27809;51.864;5.646;2022-12-18T02:52:04;-5.60;99.90
42141;DHT22;27809;51.864;5.646;2022-12-18T02:54:57;-5.50;99.90
42141;DHT22;27809;51.864;5.646;2022-12-18T02:57:42;-5.70;99.90
42141;DHT22;27809;51.864;5.646;2022-12-18T03:00:22;-5.70;99.90
42141;DHT22;27809;51.864;5.646;2022-12-18T03:05:22;-5.90;99.90
42141;DHT22;27809;51.864;5.646;2022-12-18T03:08:09;-6.10;99.90
42141;DHT22;27809;51.864;5.646;2022-12-18T03:10:54;-6.20;99.90
42141;DHT22;27809;51.864;5.646;2022-12-18T03:13:37;-6.30;99.90
42141;DHT22;27809;51.864;5.646;2022-12-18T03:16:06;-6.60;99.90
42141;DHT22;27809;51.864;5.646;2022-12-18T03:18:36;-6.60;99.90
42141;DHT22;27809;51.864;5.646;2022-12-18T03:21:05;-6.50;99.90
42141;DHT22;27809;51.864;5.646;2022-12-18T03:23:39;-6.60;99.90
42141;DHT22;27809;51.864;5.646;2022-12-18T03:26:09;-6.60;99.90
42141;DHT22;27809;51.864;5.646;2022-12-18T03:28:42;-6.70;99.90
42141;DHT22;27809;51.864;5.646;2022-12-18T03:31:11;-6.50;99.90
42141;DHT22;27809;51.864;5.646;2022-12-18T03:33:47;-6.60;99.90
42141;DHT22;27809;51.864;5.646;2022-12-18T03:36:16;-6.70;99.90
42141;DHT22;27809;51.864;5.646;2022-12-18T03:38:42;-6.60;99.90
42141;DHT22;27809;51.864;5.646;2022-12-18T03:44:08;-6.40;99.90
42141;DHT22;27809;51.864;5.646;2022-12-18T03:46:44;-6.40;99.90
42141;DHT22;27809;51.864;5.646;2022-12-18T03:49:24;-6.30;99.90
42141;DHT22;27809;51.864;5.646;2022-12-18T03:52:04;-6.20;99.90
42141;DHT22;27809;51.864;5.646;2022-12-18T03:54:30;-6.30;99.90
42141;DHT22;27809;51.864;5.646;2022-12-18T03:57:04;-6.50;99.90
42141;DHT22;27809;51.864;5.646;2022-12-18T03:59:32;-5.90;99.90
42141;DHT22;27809;51.864;5.646;2022-12-18T04:02:00;-5.90;99.90
42141;DHT22;27809;51.864;5.646;2022-12-18T04:04:27;-6.00;99.90
42141;DHT22;27809;51.864;5.646;2022-12-18T04:06:54;-6.00;99.90
42141;DHT22;27809;51.864;5.646;2022-12-18T04:09:20;-6.00;99.90
42141;DHT22;27809;51.864;5.646;2022-12-18T04:11:46;-6.10;99.90
42141;DHT22;27809;51.864;5.646;2022-12-18T04:14:14;-6.10;99.90
42141;DHT22;27809;51.864;5.646;2022-12-18T04:16:39;-6.10;99.90
42141;DHT22;27809;51.864;5.646;2022-12-18T04:19:05;-6.00;99.90
42141;DHT22;27809;51.864;5.646;2022-12-18T04:21:31;-6.00;99.90
42141;DHT22;27809;51.864;5.646;2022-12-18T04:23:56;-5.80;99.90
42141;DHT22;27809;51.864;5.646;2022-12-18T04:26:22;-5.90;99.90
42141;DHT22;27809;51.864;5.646;2022-12-18T04:28:47;-6.10;99.90
42141;DHT22;27809;51.864;5.646;2022-12-18T04:31:13;-6.00;99.90
42141;DHT22;27809;51.864;5.646;2022-12-18T04:33:39;-5.90;99.90
42141;DHT22;27809;51.864;5.646;2022-12-18T04:36:04;-5.80;99.90
42141;DHT22;27809;51.864;5.646;2022-12-18T04:38:30;-6.00;99.90
42141;DHT22;27809;51.864;5.646;2022-12-18T04:40:56;-5.90;99.90
42141;DHT22;27809;51.864;5.646;2022-12-18T04:43:21;-6.10;99.90
42141;DHT22;27809;51.864;5.646;2022-12-18T04:45:47;-6.10;99.90
42141;DHT22;27809;51.864;5.646;2022-12-18T04:48:12;-6.00;99.90
42141;DHT22;27809;51.864;5.646;2022-12-18T04:50:38;-6.00;99.90
42141;DHT22;27809;51.864;5.646;2022-12-18T04:53:03;-6.10;99.90
42141;DHT22;27809;51.864;5.646;2022-12-18T04:55:29;-5.90;99.90
42141;DHT22;27809;51.864;5.646;2022-12-18T04:57:55;-6.20;99.90
42141;DHT22;27809;51.864;5.646;2022-12-18T05:00:20;-6.10;99.90
42141;DHT22;27809;51.864;5.646;2022-12-18T05:02:46;-6.00;99.90
42141;DHT22;27809;51.864;5.646;2022-12-18T05:05:11;-5.90;99.90
42141;DHT22;27809;51.864;5.646;2022-12-18T05:07:37;-5.90;99.90
42141;DHT22;27809;51.864;5.646;2022-12-18T05:10:06;-6.00;99.90
42141;DHT22;27809;51.864;5.646;2022-12-18T05:12:32;-6.20;99.90
42141;DHT22;27809;51.864;5.646;2022-12-18T05:14:57;-6.30;99.90
42141;DHT22;27809;51.864;5.646;2022-12-18T05:17:23;-6.20;99.90
42141;DHT22;27809;51.864;5.646;2022-12-18T05:19:48;-6.40;99.90
42141;DHT22;27809;51.864;5.646;2022-12-18T05:22:14;-6.40;99.90
42141;DHT22;27809;51.864;5.646;2022-12-18T05:24:39;-6.30;99.90
42141;DHT22;27809;51.864;5.646;2022-12-18T05:27:05;-6.50;99.90
42141;DHT22;27809;51.864;5.646;2022-12-18T05:29:30;-6.30;99.90
42141;DHT22;27809;51.864;5.646;2022-12-18T05:31:56;-6.40;99.90
42141;DHT22;27809;51.864;5.646;2022-12-18T05:34:21;-6.50;99.90
42141;DHT22;27809;51.864;5.646;2022-12-18T05:36:47;-6.50;99.90
42141;DHT22;27809;51.864;5.646;2022-12-18T05:39:12;-6.50;99.90
42141;DHT22;27809;51.864;5.646;2022-12-18T05:41:38;-6.60;99.90
42141;DHT22;27809;51.864;5.646;2022-12-18T05:44:03;-6.50;99.90
42141;DHT22;27809;51.864;5.646;2022-12-18T05:46:29;-6.40;99.90
42141;DHT22;27809;51.864;5.646;2022-12-18T05:48:55;-6.60;99.90
42141;DHT22;27809;51.864;5.646;2022-12-18T05:51:22;-6.70;99.90
42141;DHT22;27809;51.864;5.646;2022-12-18T05:53:48;-6.70;99.90
42141;DHT22;27809;51.864;5.646;2022-12-18T05:56:18;-6.70;99.90
42141;DHT22;27809;51.864;5.646;2022-12-18T05:58:44;-6.70;99.90
42141;DHT22;27809;51.864;5.646;2022-12-18T06:01:16;-6.60;99.90
42141;DHT22;27809;51.864;5.646;2022-12-18T06:03:42;-6.60;99.90
42141;DHT22;27809;51.864;5.646;2022-12-18T06:06:19;-6.10;99.90
42141;DHT22;27809;51.864;5.646;2022-12-18T06:08:45;-6.30;99.90
42141;DHT22;27809;51.864;5.646;2022-12-18T06:11:11;-6.10;99.90
42141;DHT22;27809;51.864;5.646;2022-12-18T06:13:37;-5.80;99.90
42141;DHT22;27809;51.864;5.646;2022-12-18T06:16:04;-5.70;99.90
42141;DHT22;27809;51.864;5.646;2022-12-18T06:18:30;-5.60;99.90
42141;DHT22;27809;51.864;5.646;2022-12-18T06:20:57;-5.60;99.90
42141;DHT22;27809;51.864;5.646;2022-12-18T06:23:23;-5.50;99.90
42141;DHT22;27809;51.864;5.646;2022-12-18T06:25:49;-5.80;99.90
42141;DHT22;27809;51.864;5.646;2022-12-18T06:28:14;-5.50;99.90
42141;DHT22;27809;51.864;5.646;2022-12-18T06:30:42;-5.30;99.90
42141;DHT22;27809;51.864;5.646;2022-12-18T06:33:08;-5.40;99.90
42141;DHT22;27809;51.864;5.646;2022-12-18T06:35:33;-5.60;99.90
42141;DHT22;27809;51.864;5.646;2022-12-18T06:38:01;-5.60;99.90
42141;DHT22;27809;51.864;5.646;2022-12-18T06:40:26;-5.50;99.90
42141;DHT22;27809;51.864;5.646;2022-12-18T06:42:52;-5.50;99.90
42141;DHT22;27809;51.864;5.646;2022-12-18T06:45:17;-5.50;99.90
42141;DHT22;27809;51.864;5.646;2022-12-18T06:47:43;-5.50;99.90
42141;DHT22;27809;51.864;5.646;2022-12-18T06:50:09;-5.60;99.90
42141;DHT22;27809;51.864;5.646;2022-12-18T06:52:34;-5.50;99.90
42141;DHT22;27809;51.864;5.646;2022-12-18T06:55:00;-5.40;99.90
42141;DHT22;27809;51.864;5.646;2022-12-18T06:57:26;-5.20;99.90
42141;DHT22;27809;51.864;5.646;2022-12-18T06:59:51;-5.30;99.90
42141;DHT22;27809;51.864;5.646;2022-12-18T07:02:17;-5.50;99.90
42141;DHT22;27809;51.864;5.646;2022-12-18T07:04:42;-5.60;99.90
42141;DHT22;27809;51.864;5.646;2022-12-18T07:07:08;-5.60;99.90
42141;DHT22;27809;51.864;5.646;2022-12-18T07:09:33;-5.70;99.90
42141;DHT22;27809;51.864;5.646;2022-12-18T07:11:59;-6.10;99.90
42141;DHT22;27809;51.864;5.646;2022-12-18T07:14:24;-4.80;99.90
42141;DHT22;27809;51.864;5.646;2022-12-18T07:16:50;-5.60;99.90
42141;DHT22;27809;51.864;5.646;2022-12-18T07:19:15;-5.50;99.90
42141;DHT22;27809;51.864;5.646;2022-12-18T07:21:41;-6.00;99.90
42141;DHT22;27809;51.864;5.646;2022-12-18T07:24:07;-6.10;99.90
42141;DHT22;27809;51.864;5.646;2022-12-18T07:26:32;-5.90;99.90
42141;DHT22;27809;51.864;5.646;2022-12-18T07:28:58;-5.60;99.90
42141;DHT22;27809;51.864;5.646;2022-12-18T07:31:24;-5.50;99.90
42141;DHT22;27809;51.864;5.646;2022-12-18T07:33:51;-5.30;99.90
42141;DHT22;27809;51.864;5.646;2022-12-18T07:36:17;-5.00;99.90
42141;DHT22;27809;51.864;5.646;2022-12-18T07:38:42;-5.00;99.90
42141;DHT22;27809;51.864;5.646;2022-12-18T07:41:12;-5.00;99.90
42141;DHT22;27809;51.864;5.646;2022-12-18T07:43:39;-4.90;99.90
42141;DHT22;27809;51.864;5.646;2022-12-18T07:46:05;-4.60;99.90
42141;DHT22;27809;51.864;5.646;2022-12-18T07:48:31;-4.50;99.90
42141;DHT22;27809;51.864;5.646;2022-12-18T07:51:05;-4.50;99.90
42141;DHT22;27809;51.864;5.646;2022-12-18T07:53:32;-4.50;99.90
42141;DHT22;27809;51.864;5.646;2022-12-18T07:56:04;-4.50;99.90
42141;DHT22;27809;51.864;5.646;2022-12-18T07:58:30;-4.30;99.90
42141;DHT22;27809;51.864;5.646;2022-12-18T08:01:10;-4.20;99.90
42141;DHT22;27809;51.864;5.646;2022-12-18T08:03:36;-4.20;99.90
42141;DHT22;27809;51.864;5.646;2022-12-18T08:06:03;-4.10;99.90
42141;DHT22;27809;51.864;5.646;2022-12-18T08:08:30;-4.00;99.90
42141;DHT22;27809;51.864;5.646;2022-12-18T08:10:56;-4.10;99.90
42141;DHT22;27809;51.864;5.646;2022-12-18T08:13:23;-4.10;99.90
42141;DHT22;27809;51.864;5.646;2022-12-18T08:15:59;-4.10;99.90
42141;DHT22;27809;51.864;5.646;2022-12-18T08:18:25;-4.10;99.90
42141;DHT22;27809;51.864;5.646;2022-12-18T08:20:50;-3.90;99.90
42141;DHT22;27809;51.864;5.646;2022-12-18T08:23:16;-3.80;99.90
42141;DHT22;27809;51.864;5.646;2022-12-18T08:25:41;9.70;97.60
42141;DHT22;27809;51.864;5.646;2022-12-18T08:28:07;16.00;33.30
42141;DHT22;27809;51.864;5.646;2022-12-18T08:30:32;5.70;25.40
42141;DHT22;27809;51.864;5.646;2022-12-18T08:32:58;-0.90;54.50
42141;DHT22;27809;51.864;5.646;2022-12-18T08:35:23;-2.30;81.60
42141;DHT22;27809;51.864;5.646;2022-12-18T08:37:49;-2.70;93.10
42141;DHT22;27809;51.864;5.646;2022-12-18T08:40:15;-2.60;95.70
42141;DHT22;27809;51.864;5.646;2022-12-18T08:42:40;-2.80;96.90
42141;DHT22;27809;51.864;5.646;2022-12-18T08:45:24;-2.80;97.20
42141;DHT22;27809;51.864;5.646;2022-12-18T08:47:50;-2.70;99.90
42141;DHT22;27809;51.864;5.646;2022-12-18T08:50:15;-2.60;98.90
42141;DHT22;27809;51.864;5.646;2022-12-18T08:52:41;-2.80;99.50
42141;DHT22;27809;51.864;5.646;2022-12-18T08:55:07;-2.90;99.90
42141;DHT22;27809;51.864;5.646;2022-12-18T08:57:33;-2.80;99.90
42141;DHT22;27809;51.864;5.646;2022-12-18T08:59:58;-2.90;99.90
42141;DHT22;27809;51.864;5.646;2022-12-18T09:02:24;-2.90;99.90
42141;DHT22;27809;51.864;5.646;2022-12-18T09:04:50;-2.80;99.90
42141;DHT22;27809;51.864;5.646;2022-12-18T09:07:15;-2.70;99.90
42141;DHT22;27809;51.864;5.646;2022-12-18T09:09:41;-2.50;99.90
42141;DHT22;27809;51.864;5.646;2022-12-18T09:12:06;-2.70;99.90
42141;DHT22;27809;51.864;5.646;2022-12-18T09:14:32;-2.60;99.90
42141;DHT22;27809;51.864;5.646;2022-12-18T09:16:57;-2.40;99.90
42141;DHT22;27809;51.864;5.646;2022-12-18T09:19:23;-2.50;99.90
42141;DHT22;27809;51.864;5.646;2022-12-18T09:21:48;-2.40;99.90
42141;DHT22;27809;51.864;5.646;2022-12-18T09:24:14;-2.40;99.90
42141;DHT22;27809;51.864;5.646;2022-12-18T09:26:40;-2.10;99.90
42141;DHT22;27809;51.864;5.646;2022-12-18T09:29:06;-2.10;98.80
42141;DHT22;27809;51.864;5.646;2022-12-18T09:31:35;-2.00;98.30
42141;DHT22;27809;51.864;5.646;2022-12-18T09:34:01;-2.10;99.20
42141;DHT22;27809;51.864;5.646;2022-12-18T09:36:27;-2.00;99.90
42141;DHT22;27809;51.864;5.646;2022-12-18T09:38:52;-2.00;99.90
42141;DHT22;27809;51.864;5.646;2022-12-18T09:44:03;-1.80;99.30
42141;DHT22;27809;51.864;5.646;2022-12-18T09:46:33;-1.90;98.90
42141;DHT22;27809;51.864;5.646;2022-12-18T09:49:03;-1.10;99.90
42141;DHT22;27809;51.864;5.646;2022-12-18T09:51:37;-1.80;96.70
42141;DHT22;27809;51.864;5.646;2022-12-18T09:54:07;-1.80;98.00
42141;DHT22;27809;51.864;5.646;2022-12-18T09:56:40;-1.30;99.60
42141;DHT22;27809;51.864;5.646;2022-12-18T09:59:24;-1.60;97.50
42141;DHT22;27809;51.864;5.646;2022-12-18T10:01:50;-1.80;96.80
42141;DHT22;27809;51.864;5.646;2022-12-18T10:04:16;-1.80;97.20
42141;DHT22;27809;51.864;5.646;2022-12-18T10:09:33;-1.70;97.90
42141;DHT22;27809;51.864;5.646;2022-12-18T10:12:25;-1.60;98.60
42141;DHT22;27809;51.864;5.646;2022-12-18T10:15:33;-1.60;96.20
42141;DHT22;27809;51.864;5.646;2022-12-18T10:18:20;-1.40;97.80
42141;DHT22;27809;51.864;5.646;2022-12-18T10:20:52;-1.50;96.10
42141;DHT22;27809;51.864;5.646;2022-12-18T10:23:33;-1.20;96.60
42141;DHT22;27809;51.864;5.646;2022-12-18T10:26:10;-1.30;95.90
42141;DHT22;27809;51.864;5.646;2022-12-18T10:28:40;-1.30;96.00
42141;DHT22;27809;51.864;5.646;2022-12-18T10:31:07;6.00;39.30
42141;DHT22;27809;51.864;5.646;2022-12-18T10:33:33;1.30;56.00
42141;DHT22;27809;51.864;5.646;2022-12-18T10:35:59;-0.40;75.60
42141;DHT22;27809;51.864;5.646;2022-12-18T10:38:30;-0.80;86.20
42141;DHT22;27809;51.864;5.646;2022-12-18T10:41:04;-1.00;91.30
42141;DHT22;27809;51.864;5.646;2022-12-18T10:43:34;-0.70;91.10
42141;DHT22;27809;51.864;5.646;2022-12-18T10:48:36;-0.90;91.60
42141;DHT22;27809;51.864;5.646;2022-12-18T10:51:02;-0.90;92.10
42141;DHT22;27809;51.864;5.646;2022-12-18T10:53:30;-0.90;91.40
42141;DHT22;27809;51.864;5.646;2022-12-18T10:56:00;-0.90;92.20
42141;DHT22;27809;51.864;5.646;2022-12-18T10:58:34;-1.00;91.80
42141;DHT22;27809;51.864;5.646;2022-12-18T11:01:08;-1.00;93.20
42141;DHT22;27809;51.864;5.646;2022-12-18T11:03:46;-1.00;93.80
42141;DHT22;27809;51.864;5.646;2022-12-18T11:06:24;-1.00;93.40
42141;DHT22;27809;51.864;5.646;2022-12-18T11:09:19;-0.90;92.00
42141;DHT22;27809;51.864;5.646;2022-12-18T11:11:53;-0.90;92.50
42141;DHT22;27809;51.864;5.646;2022-12-18T11:14:27;-0.90;92.60
42141;DHT22;27809;51.864;5.646;2022-12-18T11:16:55;-0.80;91.90
42141;DHT22;27809;51.864;5.646;2022-12-18T11:19:33;-0.90;91.70
42141;DHT22;27809;51.864;5.646;2022-12-18T11:22:00;-0.70;91.40
42141;DHT22;27809;51.864;5.646;2022-12-18T11:24:33;-0.60;91.00
42141;DHT22;27809;51.864;5.646;2022-12-18T11:27:03;-0.60;91.70
42141;DHT22;27809;51.864;5.646;2022-12-18T11:29:37;-0.50;91.00
42141;DHT22;27809;51.864;5.646;2022-12-18T11:34:44;-0.40;89.30
42141;DHT22;27809;51.864;5.646;2022-12-18T11:37:11;-0.20;94.30
42141;DHT22;27809;51.864;5.646;2022-12-18T11:42:58;-0.40;90.10
42141;DHT22;27809;51.864;5.646;2022-12-18T11:45:28;-0.20;90.00
42141;DHT22;27809;51.864;5.646;2022-12-18T11:48:05;-0.20;88.50
42141;DHT22;27809;51.864;5.646;2022-12-18T11:50:49;-0.20;85.70
42141;DHT22;27809;51.864;5.646;2022-12-18T11:53:16;-0.20;86.60
42141;DHT22;27809;51.864;5.646;2022-12-18T12:04:28;0.00;85.30
42141;DHT22;27809;51.864;5.646;2022-12-18T12:09:59;-0.20;85.20
42141;DHT22;27809;51.864;5.646;2022-12-18T12:12:53;-0.20;89.00
42141;DHT22;27809;51.864;5.646;2022-12-18T12:20:44;0.00;88.70
42141;DHT22;27809;51.864;5.646;2022-12-18T12:23:17;-0.10;84.00
42141;DHT22;27809;51.864;5.646;2022-12-18T12:26:02;0.00;86.60
42141;DHT22;27809;51.864;5.646;2022-12-18T12:28:51;0.00;84.90
42141;DHT22;27809;51.864;5.646;2022-12-18T12:34:04;0.00;87.60
42141;DHT22;27809;51.864;5.646;2022-12-18T12:39:22;0.00;87.40
42141;DHT22;27809;51.864;5.646;2022-12-18T12:41:48;0.10;88.70
42141;DHT22;27809;51.864;5.646;2022-12-18T12:44:44;0.20;88.90
42141;DHT22;27809;51.864;5.646;2022-12-18T12:47:19;0.20;87.40
42141;DHT22;27809;51.864;5.646;2022-12-18T12:49:46;0.20;87.70
42141;DHT22;27809;51.864;5.646;2022-12-18T12:52:30;0.10;85.20
42141;DHT22;27809;51.864;5.646;2022-12-18T12:54:56;0.20;87.60
42141;DHT22;27809;51.864;5.646;2022-12-18T12:57:37;0.10;87.10
42141;DHT22;27809;51.864;5.646;2022-12-18T13:09:04;0.20;82.10
42141;DHT22;27809;51.864;5.646;2022-12-18T13:11:32;0.10;83.40
42141;DHT22;27809;51.864;5.646;2022-12-18T13:14:31;0.20;83.30
42141;DHT22;27809;51.864;5.646;2022-12-18T13:20:11;0.20;81.30
42141;DHT22;27809;51.864;5.646;2022-12-18T13:22:43;0.20;83.10
42141;DHT22;27809;51.864;5.646;2022-12-18T13:25:35;0.30;83.80
42141;DHT22;27809;51.864;5.646;2022-12-18T13:28:04;0.20;80.70
42141;DHT22;27809;51.864;5.646;2022-12-18T13:38:46;0.20;77.10
42141;DHT22;27809;51.864;5.646;2022-12-18T13:44:29;0.30;78.50
42141;DHT22;27809;51.864;5.646;2022-12-18T13:46:47;0.30;78.40
42141;DHT22;27809;51.864;5.646;2022-12-18T13:51:44;0.30;79.30
42141;DHT22;27809;51.864;5.646;2022-12-18T13:54:32;0.20;76.10
42141;DHT22;27809;51.864;5.646;2022-12-18T13:56:59;0.30;79.40
42141;DHT22;27809;51.864;5.646;2022-12-18T13:59:26;0.20;76.20
42141;DHT22;27809;51.864;5.646;2022-12-18T14:02:13;0.20;74.90
42141;DHT22;27809;51.864;5.646;2022-12-18T14:04:39;0.30;76.00
42141;DHT22;27809;51.864;5.646;2022-12-18T14:07:07;0.20;76.60
42141;DHT22;27809;51.864;5.646;2022-12-18T14:09:42;0.20;75.00
42141;DHT22;27809;51.864;5.646;2022-12-18T14:15:25;0.20;75.90
42141;DHT22;27809;51.864;5.646;2022-12-18T14:17:59;0.20;76.10
42141;DHT22;27809;51.864;5.646;2022-12-18T14:20:26;0.10;77.60
42141;DHT22;27809;51.864;5.646;2022-12-18T14:22:53;0.20;77.70
42141;DHT22;27809;51.864;5.646;2022-12-18T14:25:22;0.20;76.50
42141;DHT22;27809;51.864;5.646;2022-12-18T14:27:50;0.30;77.00
42141;DHT22;27809;51.864;5.646;2022-12-18T14:30:37;0.30;77.30
42141;DHT22;27809;51.864;5.646;2022-12-18T14:35:35;0.20;79.00
42141;DHT22;27809;51.864;5.646;2022-12-18T14:40:42;0.30;75.70
42141;DHT22;27809;51.864;5.646;2022-12-18T14:43:11;0.20;76.70
42141;DHT22;27809;51.864;5.646;2022-12-18T14:45:44;0.20;76.50
42141;DHT22;27809;51.864;5.646;2022-12-18T14:50:53;0.30;77.40
42141;DHT22;27809;51.864;5.646;2022-12-18T14:53:23;0.30;78.10
42141;DHT22;27809;51.864;5.646;2022-12-18T14:55:50;0.20;78.30
42141;DHT22;27809;51.864;5.646;2022-12-18T14:58:17;0.10;78.50
42141;DHT22;27809;51.864;5.646;2022-12-18T15:00:43;0.20;77.50
42141;DHT22;27809;51.864;5.646;2022-12-18T15:03:09;0.10;76.70
42141;DHT22;27809;51.864;5.646;2022-12-18T15:05:35;0.10;78.40
42141;DHT22;27809;51.864;5.646;2022-12-18T15:08:02;0.30;78.10
42141;DHT22;27809;51.864;5.646;2022-12-18T15:10:30;0.10;77.20
42141;DHT22;27809;51.864;5.646;2022-12-18T15:20:43;0.10;78.10
42141;DHT22;27809;51.864;5.646;2022-12-18T15:23:21;0.20;76.70
42141;DHT22;27809;51.864;5.646;2022-12-18T15:25:54;0.10;76.60
42141;DHT22;27809;51.864;5.646;2022-12-18T15:28:26;0.10;77.90
42141;DHT22;27809;51.864;5.646;2022-12-18T15:31:57;0.00;78.00
42141;DHT22;27809;51.864;5.646;2022-12-18T15:36:23;0.00;78.90
42141;DHT22;27809;51.864;5.646;2022-12-18T15:38:54;0.10;78.60
42141;DHT22;27809;51.864;5.646;2022-12-18T15:41:21;0.00;78.10
42141;DHT22;27809;51.864;5.646;2022-12-18T15:43:51;0.10;77.20
42141;DHT22;27809;51.864;5.646;2022-12-18T15:46:22;0.10;77.70
42141;DHT22;27809;51.864;5.646;2022-12-18T15:48:55;0.00;79.30
42141;DHT22;27809;51.864;5.646;2022-12-18T15:51:32;0.00;78.90
42141;DHT22;27809;51.864;5.646;2022-12-18T15:54:01;0.10;79.50
42141;DHT22;27809;51.864;5.646;2022-12-18T15:56:29;0.00;78.20
42141;DHT22;27809;51.864;5.646;2022-12-18T15:59:16;0.10;79.10
42141;DHT22;27809;51.864;5.646;2022-12-18T16:01:44;0.10;78.60
42141;DHT22;27809;51.864;5.646;2022-12-18T16:04:14;0.00;78.10
42141;DHT22;27809;51.864;5.646;2022-12-18T16:06:40;0.10;79.40
42141;DHT22;27809;51.864;5.646;2022-12-18T16:09:07;0.00;79.30
42141;DHT22;27809;51.864;5.646;2022-12-18T16:11:34;0.00;80.80
42141;DHT22;27809;51.864;5.646;2022-12-18T16:14:17;-0.10;81.10
42141;DHT22;27809;51.864;5.646;2022-12-18T16:16:48;0.00;80.50
42141;DHT22;27809;51.864;5.646;2022-12-18T16:19:14;0.00;80.30
42141;DHT22;27809;51.864;5.646;2022-12-18T16:21:40;0.10;80.20
42141;DHT22;27809;51.864;5.646;2022-12-18T16:24:09;0.00;80.00
42141;DHT22;27809;51.864;5.646;2022-12-18T16:26:38;-0.10;79.30
42141;DHT22;27809;51.864;5.646;2022-12-18T16:29:03;0.00;80.20
42141;DHT22;27809;51.864;5.646;2022-12-18T16:31:29;0.00;81.30
42141;DHT22;27809;51.864;5.646;2022-12-18T16:36:39;0.10;80.50
42141;DHT22;27809;51.864;5.646;2022-12-18T16:39:04;-0.10;81.80
42141;DHT22;27809;51.864;5.646;2022-12-18T16:41:30;0.00;80.90
42141;DHT22;27809;51.864;5.646;2022-12-18T16:43:59;-0.10;79.20
42141;DHT22;27809;51.864;5.646;2022-12-18T16:46:25;0.00;80.10
42141;DHT22;27809;51.864;5.646;2022-12-18T16:48:51;0.00;81.00
42141;DHT22;27809;51.864;5.646;2022-12-18T16:51:16;0.00;81.20
42141;DHT22;27809;51.864;5.646;2022-12-18T16:53:42;-0.10;79.90
42141;DHT22;27809;51.864;5.646;2022-12-18T16:56:07;0.90;96.40
42141;DHT22;27809;51.864;5.646;2022-12-18T16:58:33;0.30;79.90
42141;DHT22;27809;51.864;5.646;2022-12-18T17:00:59;0.00;80.80
42141;DHT22;27809;51.864;5.646;2022-12-18T17:03:24;-0.10;82.80
42141;DHT22;27809;51.864;5.646;2022-12-18T17:05:50;0.00;83.90
42141;DHT22;27809;51.864;5.646;2022-12-18T17:08:15;-0.10;83.60
42141;DHT22;27809;51.864;5.646;2022-12-18T17:10:41;-0.10;84.60
42141;DHT22;27809;51.864;5.646;2022-12-18T17:13:06;-0.10;85.50
42141;DHT22;27809;51.864;5.646;2022-12-18T17:15:35;-0.10;84.10
42141;DHT22;27809;51.864;5.646;2022-12-18T17:18:01;-0.10;83.70
42141;DHT22;27809;51.864;5.646;2022-12-18T17:20:26;0.70;81.40
42141;DHT22;27809;51.864;5.646;2022-12-18T17:22:52;0.10;83.10
42141;DHT22;27809;51.864;5.646;2022-12-18T17:25:17;0.00;84.40
42141;DHT22;27809;51.864;5.646;2022-12-18T17:27:43;0.10;84.40